Time;durP1;ratioP1;P1;durP2;ratioP2;P2;SDS_P1;SDS_P2;PMS_P1;PMS_P2;Temp;Humidity;BMP_temperature;BMP_pressure;BME280_temperature;BME280_humidity;BME280_pressure;Samples;Min_cycle;Max_cycle;Signal;HPM_P1;HPM_P2
2021/08/24 04:01:13;;;;;;;10.13;9.23;;;14.70;99.90;;;;;;5697860;23;20485;-67
2021/08/24 04:03:39;;;;;;;11.03;10.03;;;14.70;99.90;;;;;;4997214;28;20430;-67
2021/08/24 04:06:06;;;;;;;10.47;9.60;;;14.70;99.90;;;;;;4997126;28;20814;-67
2021/08/24 04:08:33;;;;;;;11.73;10.70;;;14.60;99.90;;;;;;4997431;28;20458;-67
2021/08/24 04:11:02;;;;;;;11.03;9.93;;;14.60;99.90;;;;;;4996621;28;20995;-67
2021/08/24 04:13:28;;;;;;;11.03;10.03;;;14.60;99.90;;;;;;4996884;28;20454;-67
2021/08/24 04:15:55;;;;;;;12.97;10.37;;;14.60;99.90;;;;;;4996449;28;21007;-67
2021/08/24 04:18:23;;;;;;;11.60;10.40;;;14.60;99.90;;;;;;4996845;28;20456;-67
2021/08/24 04:20:50;;;;;;;11.43;10.53;;;14.50;99.90;;;;;;4996654;28;20508;-66
2021/08/24 04:23:20;;;;;;;12.07;10.97;;;14.50;99.90;;;;;;4995867;28;20443;-67
2021/08/24 04:25:47;;;;;;;11.00;10.20;;;14.50;99.90;;;;;;4996868;28;20453;-67
2021/08/24 04:28:14;;;;;;;11.73;10.73;;;14.40;99.90;;;;;;4996454;28;20461;-67
2021/08/24 04:30:41;;;;;;;11.00;10.10;;;14.40;99.90;;;;;;4996978;28;20521;-66
2021/08/24 04:33:08;;;;;;;12.67;11.37;;;14.40;99.90;;;;;;4996398;28;20454;-67
2021/08/24 04:35:35;;;;;;;12.90;11.70;;;14.30;99.90;;;;;;4997442;28;20449;-67
2021/08/24 04:38:02;;;;;;;12.00;10.90;;;14.30;99.90;;;;;;4996782;28;20820;-67
2021/08/24 04:40:31;;;;;;;11.80;10.90;;;14.30;99.90;;;;;;4996416;28;20529;-66
2021/08/24 04:42:58;;;;;;;13.83;12.63;;;14.30;99.90;;;;;;4996352;28;20488;-67
2021/08/24 04:45:25;;;;;;;13.03;11.83;;;14.20;99.90;;;;;;4996455;28;20458;-67
2021/08/24 04:47:51;;;;;;;14.47;13.20;;;14.30;99.90;;;;;;4996032;28;20991;-67
2021/08/24 04:50:18;;;;;;;12.23;11.03;;;14.30;99.90;;;;;;4996132;28;20805;-66
2021/08/24 04:52:46;;;;;;;12.30;11.00;;;14.30;99.90;;;;;;4996196;28;20478;-67
2021/08/24 04:55:13;;;;;;;13.30;12.20;;;14.30;99.90;;;;;;4996181;28;20606;-67
2021/08/24 04:57:40;;;;;;;13.83;12.43;;;14.20;99.90;;;;;;4995998;28;20450;-67
2021/08/24 05:00:08;;;;;;;12.83;11.83;;;14.30;99.90;;;;;;4995985;28;20478;-67
2021/08/24 05:02:35;;;;;;;13.70;12.60;;;14.40;99.90;;;;;;4995631;28;20465;-66
2021/08/24 05:05:02;;;;;;;14.40;13.10;;;14.40;99.90;;;;;;4996035;28;20457;-67
2021/08/24 05:07:29;;;;;;;13.53;12.23;;;14.40;99.90;;;;;;4996126;28;20504;-67
2021/08/24 05:09:57;;;;;;;15.00;13.20;;;14.40;99.90;;;;;;4995824;28;20508;-67
2021/08/24 05:12:24;;;;;;;14.30;13.10;;;14.40;99.90;;;;;;4995832;28;20481;-66
2021/08/24 05:14:50;;;;;;;13.93;12.67;;;14.30;99.90;;;;;;4995806;28;20465;-67
2021/08/24 05:17:17;;;;;;;14.30;12.90;;;14.40;99.90;;;;;;4995792;28;20454;-67
2021/08/24 05:19:44;;;;;;;13.63;12.43;;;14.50;99.90;;;;;;4995666;28;20525;-67
2021/08/24 05:22:10;;;;;;;13.30;12.10;;;14.50;99.90;;;;;;4995973;28;20478;-66
2021/08/24 05:24:38;;;;;;;14.07;12.87;;;14.60;99.90;;;;;;4995350;28;20457;-67
2021/08/24 05:27:06;;;;;;;12.80;11.40;;;14.50;99.90;;;;;;4995497;28;20464;-67
2021/08/24 05:29:33;;;;;;;12.67;11.47;;;14.60;99.90;;;;;;4995259;28;20963;-67
2021/08/24 05:32:02;;;;;;;11.73;10.63;;;14.70;99.90;;;;;;4995418;28;20481;-66
2021/08/24 05:34:28;;;;;;;12.33;10.83;;;14.70;99.90;;;;;;4995168;28;20544;-67
2021/08/24 05:36:55;;;;;;;13.50;11.60;;;14.80;99.90;;;;;;4996181;28;20454;-67
2021/08/24 05:39:22;;;;;;;10.90;10.00;;;14.90;99.90;;;;;;4995330;28;20453;-67
2021/08/24 05:41:49;;;;;;;11.03;10.13;;;15.00;99.90;;;;;;4995103;28;20489;-66
2021/08/24 05:44:17;;;;;;;10.23;9.30;;;15.10;99.90;;;;;;4995285;28;20465;-67
2021/08/24 05:46:44;;;;;;;11.40;10.30;;;15.10;99.90;;;;;;4995196;28;20465;-67
2021/08/24 05:49:11;;;;;;;11.50;10.33;;;15.10;99.90;;;;;;4995105;28;20800;-67
2021/08/24 05:51:39;;;;;;;9.90;8.90;;;15.30;99.90;;;;;;4994998;28;20478;-66
2021/08/24 05:54:06;;;;;;;10.50;9.50;;;15.40;99.90;;;;;;4995069;28;20453;-67
2021/08/24 05:56:33;;;;;;;10.10;9.13;;;15.50;99.90;;;;;;4995159;28;20461;-67
2021/08/24 05:59:00;;;;;;;10.53;9.43;;;15.60;99.90;;;;;;4995311;28;20458;-67
2021/08/24 06:01:31;;;;;;;10.57;9.10;;;15.80;99.90;;;;;;4994647;28;20485;-66
2021/08/24 06:03:59;;;;;;;10.00;9.17;;;15.80;99.90;;;;;;4995004;28;20446;-67
2021/08/24 06:06:28;;;;;;;9.30;8.30;;;15.90;99.90;;;;;;4994837;28;20959;-67
2021/08/24 06:08:56;;;;;;;8.63;8.00;;;16.00;99.90;;;;;;4995260;28;20457;-67
2021/08/24 06:11:25;;;;;;;9.37;8.57;;;16.00;99.90;;;;;;4994737;28;20477;-66
2021/08/24 06:13:53;;;;;;;8.70;7.80;;;16.00;99.90;;;;;;4994647;28;20460;-67
2021/08/24 06:16:20;;;;;;;9.90;9.07;;;15.80;99.90;;;;;;4995114;28;20461;-66
2021/08/24 06:18:48;;;;;;;10.87;9.87;;;15.70;99.90;;;;;;4994809;28;20458;-67
2021/08/24 06:21:16;;;;;;;9.83;9.03;;;15.80;99.90;;;;;;4994992;28;20492;-66
2021/08/24 06:23:43;;;;;;;12.20;9.07;;;15.80;99.90;;;;;;4995436;28;20469;-67
2021/08/24 06:26:10;;;;;;;10.20;9.30;;;15.80;99.90;;;;;;4994956;28;20453;-67
2021/08/24 06:28:37;;;;;;;10.07;9.27;;;15.90;99.90;;;;;;4994352;28;20469;-67
2021/08/24 06:31:04;;;;;;;9.80;8.87;;;15.90;99.90;;;;;;4995714;28;20481;-66
2021/08/24 06:33:33;;;;;;;9.70;8.90;;;15.80;99.90;;;;;;4994823;28;20824;-67
2021/08/24 06:36:01;;;;;;;10.63;9.67;;;15.90;99.90;;;;;;4994464;28;20458;-67
2021/08/24 06:38:29;;;;;;;9.27;8.37;;;15.90;99.90;;;;;;4994154;28;20461;-67
2021/08/24 06:40:56;;;;;;;10.43;9.47;;;15.90;99.90;;;;;;4994258;28;20577;-66
2021/08/24 06:43:23;;;;;;;8.93;8.23;;;15.90;99.90;;;;;;4994612;28;20457;-67
2021/08/24 06:45:49;;;;;;;9.77;8.90;;;15.90;99.90;;;;;;4994197;28;20460;-67
2021/08/24 06:48:16;;;;;;;9.77;8.70;;;16.00;99.90;;;;;;4997608;28;20487;-67
2021/08/24 06:50:43;;;;;;;8.73;8.03;;;15.90;99.90;;;;;;5001450;28;20466;-66
2021/08/24 06:53:12;;;;;;;9.50;8.70;;;16.00;99.90;;;;;;4998096;28;20458;-67
2021/08/24 06:55:39;;;;;;;8.70;7.83;;;15.90;99.90;;;;;;4994704;28;20457;-67
2021/08/24 06:58:08;;;;;;;8.10;7.50;;;16.00;99.90;;;;;;4994366;28;20933;-67
2021/08/24 07:00:36;;;;;;;8.70;8.00;;;16.00;99.90;;;;;;4993837;28;20474;-67
2021/08/24 07:03:05;;;;;;;10.33;9.43;;;16.10;99.90;;;;;;4994750;28;20466;-67
2021/08/24 07:05:33;;;;;;;10.30;7.97;;;16.00;99.90;;;;;;4994227;28;20504;-67
2021/08/24 07:08:01;;;;;;;9.30;8.60;;;16.10;99.90;;;;;;4994218;28;20458;-67
2021/08/24 07:10:29;;;;;;;11.70;9.07;;;16.00;99.90;;;;;;4994107;28;20461;-66
2021/08/24 07:12:56;;;;;;;9.17;8.40;;;16.00;99.90;;;;;;4994225;28;20454;-67
2021/08/24 07:15:23;;;;;;;8.90;8.10;;;16.00;99.90;;;;;;4994182;28;20466;-67
2021/08/24 07:17:54;;;;;;;9.30;8.50;;;16.00;99.90;;;;;;4994149;28;20453;-67
2021/08/24 07:20:22;;;;;;;9.50;8.53;;;16.20;99.90;;;;;;4994085;28;20446;-66
2021/08/24 07:22:49;;;;;;;9.33;8.43;;;16.20;99.90;;;;;;4994220;28;20458;-66
2021/08/24 07:25:18;;;;;;;12.60;8.60;;;16.10;99.90;;;;;;4994362;28;20481;-67
2021/08/24 07:27:47;;;;;;;8.83;8.20;;;16.00;99.90;;;;;;4994176;28;20446;-67
2021/08/24 07:30:15;;;;;;;9.43;8.53;;;16.00;99.90;;;;;;4994092;28;20476;-66
2021/08/24 07:32:42;;;;;;;10.60;8.10;;;16.10;99.90;;;;;;4997864;28;20454;-67
2021/08/24 07:35:10;;;;;;;10.33;8.27;;;16.20;99.90;;;;;;4994412;28;20508;-67
2021/08/24 07:37:37;;;;;;;11.03;8.27;;;16.20;99.90;;;;;;4994130;28;20470;-67
2021/08/24 07:40:05;;;;;;;8.53;7.87;;;16.20;99.90;;;;;;4993815;28;20457;-67
2021/08/24 07:42:32;;;;;;;8.77;7.87;;;16.10;99.90;;;;;;4993359;28;20492;-67
2021/08/24 07:45:00;;;;;;;9.30;8.40;;;16.20;99.90;;;;;;4993848;28;20457;-67
2021/08/24 07:47:27;;;;;;;8.77;7.80;;;16.40;99.90;;;;;;4993825;28;20454;-67
2021/08/24 07:49:54;;;;;;;7.47;6.77;;;16.60;99.90;;;;;;4993870;28;20449;-67
2021/08/24 07:52:21;;;;;;;7.83;7.13;;;17.00;99.90;;;;;;4993739;28;20528;-66
2021/08/24 07:54:47;;;;;;;6.93;5.97;;;17.40;99.90;;;;;;4994330;28;20972;-67
2021/08/24 07:57:14;;;;;;;8.67;6.30;;;17.50;99.90;;;;;;4995103;28;20564;-67
2021/08/24 07:59:41;;;;;;;6.30;5.90;;;17.50;99.90;;;;;;4996757;28;20461;-67
2021/08/24 08:02:15;;;;;;;9.70;5.03;;;17.60;99.90;;;;;;4996712;28;20482;-66
2021/08/24 08:04:42;;;;;;;5.83;5.33;;;17.80;99.90;;;;;;4997224;28;20449;-67
2021/08/24 08:07:09;;;;;;;4.73;4.20;;;18.00;99.90;;;;;;4997015;28;20458;-67
2021/08/24 08:09:36;;;;;;;5.07;4.67;;;18.10;99.90;;;;;;4997019;28;20461;-67
2021/08/24 08:12:03;;;;;;;7.60;4.40;;;18.20;99.90;;;;;;4997235;28;20476;-66
2021/08/24 08:14:30;;;;;;;5.07;4.53;;;18.50;99.90;;;;;;4997152;28;20465;-67
2021/08/24 08:16:56;;;;;;;4.50;4.10;;;18.90;99.90;;;;;;4997149;28;20504;-67
2021/08/24 08:19:25;;;;;;;6.17;4.93;;;19.50;99.90;;;;;;4997062;28;20466;-67
2021/08/24 08:21:52;;;;;;;4.60;3.60;;;20.00;99.90;;;;;;4996773;28;20485;-66
2021/08/24 08:24:18;;;;;;;5.60;4.10;;;20.20;99.90;;;;;;4996796;28;20450;-67
2021/08/24 08:26:45;;;;;;;4.43;4.03;;;20.80;99.90;;;;;;4996976;28;20458;-67
2021/08/24 08:29:13;;;;;;;3.93;3.57;;;21.70;99.90;;;;;;4996889;28;20814;-67
2021/08/24 08:31:43;;;;;;;4.80;3.70;;;23.10;99.90;;;;;;4996864;28;20477;-67
2021/08/24 08:34:10;;;;;;;3.60;3.10;;;24.10;99.90;;;;;;4997995;28;20464;-68
2021/08/24 08:36:38;;;;;;;3.50;3.20;;;25.20;99.90;;;;;;4999305;28;20485;-67
2021/08/24 08:39:05;;;;;;;3.17;2.80;;;25.70;99.90;;;;;;4997555;28;20458;-67
2021/08/24 08:41:36;;;;;;;5.93;4.13;;;26.40;99.90;;;;;;4996313;28;20994;-67
2021/08/24 08:44:12;;;;;;;3.90;3.60;;;26.20;99.90;;;;;;4996680;28;20445;-67
2021/08/24 08:46:47;;;;;;;3.70;3.40;;;24.90;99.90;;;;;;4996750;28;20842;-67
2021/08/24 08:49:30;;;;;;;6.03;4.20;;;24.50;99.90;;;;;;4996468;28;20500;-68
2021/08/24 08:52:05;;;;;;;3.67;3.40;;;24.20;99.90;;;;;;4996409;28;20512;-67
2021/08/24 08:54:47;;;;;;;3.97;3.63;;;23.70;99.90;;;;;;4996440;28;20442;-67
2021/08/24 08:57:18;;;;;;;3.50;3.30;;;23.40;99.90;;;;;;4996338;28;20438;-67
2021/08/24 08:59:49;;;;;;;4.97;4.57;;;23.10;99.90;;;;;;4995929;28;20863;-67
2021/08/24 09:02:23;;;;;;;4.33;4.03;;;22.40;99.90;;;;;;4994925;28;20485;-66
2021/08/24 09:04:51;;;;;;;3.87;3.57;;;21.90;99.90;;;;;;4995166;28;20793;-67
2021/08/24 09:07:25;;;;;;;3.57;3.27;;;21.60;99.90;;;;;;4995341;28;20552;-67
2021/08/24 09:09:52;;;;;;;7.70;4.43;;;21.30;99.90;;;;;;4994530;28;20437;-67
2021/08/24 09:12:20;;;;;;;4.50;4.20;;;20.80;99.90;;;;;;4994832;28;20476;-66
2021/08/24 09:14:49;;;;;;;3.60;3.30;;;20.60;99.90;;;;;;4995093;28;20462;-66
2021/08/24 09:17:24;;;;;;;4.10;3.80;;;20.60;99.90;;;;;;4995108;28;20461;-67
2021/08/24 09:19:57;;;;;;;4.53;4.10;;;20.60;99.90;;;;;;4995180;28;20468;-66
2021/08/24 09:22:25;;;;;;;4.57;4.17;;;20.50;99.90;;;;;;4994911;28;20489;-66
2021/08/24 09:24:52;;;;;;;4.00;3.70;;;20.20;99.90;;;;;;4994928;28;20463;-67
2021/08/24 09:27:26;;;;;;;4.97;4.30;;;20.40;99.90;;;;;;4994826;28;20466;-67
2021/08/24 09:29:53;;;;;;;3.97;3.77;;;20.60;99.90;;;;;;4998447;28;20470;-67
2021/08/24 09:32:24;;;;;;;4.47;3.30;;;20.60;99.90;;;;;;4998042;28;20470;-66
2021/08/24 09:34:56;;;;;;;5.67;3.57;;;20.90;99.90;;;;;;4994764;28;20446;-67
2021/08/24 09:37:25;;;;;;;5.10;3.53;;;21.20;99.90;;;;;;4994756;28;20493;-67
2021/08/24 09:39:56;;;;;;;3.80;3.50;;;21.60;99.90;;;;;;4994592;28;20457;-67
2021/08/24 09:42:35;;;;;;;5.23;3.30;;;21.60;99.90;;;;;;4995938;28;20828;-66
2021/08/24 09:45:05;;;;;;;4.37;3.40;;;21.50;99.90;;;;;;4995125;28;20478;-66
2021/08/24 09:47:33;;;;;;;4.00;3.70;;;21.40;99.90;;;;;;4994811;28;20461;-67
2021/08/24 09:50:04;;;;;;;4.13;3.83;;;21.10;99.90;;;;;;5000065;28;20457;-67
2021/08/24 09:52:36;;;;;;;5.67;4.00;;;21.00;99.90;;;;;;5001824;28;20473;-66
2021/08/24 09:55:08;;;;;;;4.40;4.17;;;20.80;99.90;;;;;;4996743;28;20457;-67
2021/08/24 09:57:38;;;;;;;4.40;3.90;;;20.40;99.90;;;;;;4994797;28;20449;-67
2021/08/24 10:00:08;;;;;;;4.30;4.00;;;20.30;99.90;;;;;;4994707;28;20454;-66
2021/08/24 10:02:39;;;;;;;4.03;3.73;;;20.30;99.90;;;;;;4949513;28;1316734;-67
2021/08/24 10:05:09;;;;;;;4.30;3.90;;;20.20;99.90;;;;;;4994891;28;20653;-67
2021/08/24 10:07:39;;;;;;;4.43;4.10;;;20.20;99.90;;;;;;4995042;28;20454;-67
2021/08/24 10:10:08;;;;;;;4.17;3.87;;;20.00;99.90;;;;;;4994990;28;20438;-67
2021/08/24 10:12:35;;;;;;;4.40;4.10;;;19.90;99.90;;;;;;4994941;28;20473;-67
2021/08/24 10:15:22;;;;;;;5.83;4.10;;;19.70;99.90;;;;;;4995017;28;20458;-67
2021/08/24 10:18:02;;;;;;;4.60;4.20;;;19.50;99.90;;;;;;4994918;28;20446;-67
2021/08/24 10:20:32;;;;;;;3.93;3.73;;;19.40;99.90;;;;;;4994515;28;20909;-67
2021/08/24 10:23:04;;;;;;;4.87;4.33;;;19.40;99.90;;;;;;4994472;28;20469;-67
2021/08/24 10:25:39;;;;;;;4.73;4.33;;;19.20;99.90;;;;;;4994583;28;20913;-67
2021/08/24 10:28:11;;;;;;;5.17;4.87;;;19.20;99.90;;;;;;4994746;28;20441;-67
2021/08/24 10:30:45;;;;;;;7.37;4.87;;;19.30;99.90;;;;;;4994824;28;20535;-66
2021/08/24 10:33:26;;;;;;;5.47;4.57;;;19.40;99.90;;;;;;4994482;28;20936;-67
2021/08/24 10:35:58;;;;;;;4.30;4.10;;;19.50;99.90;;;;;;4994762;28;20445;-67
2021/08/24 10:38:41;;;;;;;4.00;3.70;;;19.70;99.90;;;;;;4994874;28;20449;-67
2021/08/24 10:41:34;;;;;;;5.30;4.80;;;19.80;99.90;;;;;;4994639;28;20474;-66
2021/08/24 10:44:09;;;;;;;6.63;5.17;;;20.00;99.90;;;;;;4994632;28;20438;-67
2021/08/24 10:46:47;;;;;;;6.43;4.57;;;20.10;99.90;;;;;;4994536;28;20437;-67
2021/08/24 10:49:14;;;;;;;4.90;4.60;;;20.20;99.90;;;;;;4994502;28;20442;-67
2021/08/24 10:51:51;;;;;;;4.73;4.43;;;20.20;99.90;;;;;;4994417;28;20823;-67
2021/08/24 10:54:32;;;;;;;5.10;4.80;;;20.20;99.90;;;;;;4994269;28;20847;-67
2021/08/24 10:57:13;;;;;;;4.43;4.07;;;20.40;99.90;;;;;;4994358;28;20449;-67
2021/08/24 10:59:49;;;;;;;4.83;4.47;;;20.40;99.90;;;;;;4994079;28;20933;-67
2021/08/24 11:02:24;;;;;;;4.67;4.30;;;20.60;99.90;;;;;;4993785;28;20512;-67
2021/08/24 11:05:06;;;;;;;4.53;4.13;;;20.40;99.90;;;;;;4995184;28;20445;-67
2021/08/24 11:07:47;;;;;;;4.90;4.50;;;20.50;99.90;;;;;;4995156;28;20426;-67
2021/08/24 11:10:25;;;;;;;4.83;4.43;;;20.50;99.90;;;;;;4995206;28;20442;-66
2021/08/24 11:13:05;;;;;;;4.87;4.57;;;20.70;99.90;;;;;;4995144;28;20433;-67
2021/08/24 11:15:42;;;;;;;4.67;4.37;;;20.70;99.90;;;;;;4994879;28;20441;-67
2021/08/24 11:18:19;;;;;;;5.40;4.50;;;20.80;99.90;;;;;;4994781;28;20437;-67
2021/08/24 11:20:50;;;;;;;4.27;4.00;;;20.30;99.90;;;;;;4994773;28;20477;-66
2021/08/24 11:23:42;;;;;;;4.77;4.47;;;20.10;99.90;;;;;;4995603;28;20461;-67
2021/08/24 11:26:17;;;;;;;5.50;5.00;;;20.20;99.90;;;;;;4997522;28;20464;-67
2021/08/24 11:29:00;;;;;;;5.07;4.60;;;20.20;99.90;;;;;;4998053;28;20437;-68
2021/08/24 11:31:33;;;;;;;5.33;4.77;;;20.30;99.90;;;;;;4995941;28;20486;-67
2021/08/24 11:34:07;;;;;;;6.13;4.80;;;20.30;99.90;;;;;;4998035;28;20434;-67
2021/08/24 11:36:37;;;;;;;5.83;5.33;;;20.30;99.90;;;;;;4999008;28;20438;-67
2021/08/24 11:39:09;;;;;;;5.67;5.17;;;20.30;99.90;;;;;;4999101;28;20442;-67
2021/08/24 11:41:40;;;;;;;6.80;6.30;;;20.10;99.90;;;;;;4998395;28;20480;-67
2021/08/24 11:44:09;;;;;;;5.50;5.00;;;20.10;99.90;;;;;;4998701;28;20434;-67
2021/08/24 11:46:41;;;;;;;6.07;5.47;;;20.10;99.90;;;;;;4997673;28;20465;-67
2021/08/24 11:49:15;;;;;;;6.30;5.73;;;19.90;99.90;;;;;;4997458;28;20928;-67
2021/08/24 11:51:49;;;;;;;5.30;4.90;;;19.70;99.90;;;;;;4997588;28;20497;-66
2021/08/24 11:54:21;;;;;;;4.93;4.53;;;19.80;99.90;;;;;;4997590;28;20442;-67
2021/08/24 11:56:57;;;;;;;9.57;5.27;;;19.90;99.90;;;;;;4997668;28;20438;-67
2021/08/24 11:59:28;;;;;;;5.80;4.33;;;19.70;99.90;;;;;;4997594;28;20442;-67
2021/08/24 12:01:55;;;;;;;5.37;4.97;;;19.60;99.90;;;;;;4997539;28;20488;-66
2021/08/24 12:04:23;;;;;;;6.67;5.50;;;19.60;99.90;;;;;;4998249;28;20457;-67
2021/08/24 12:06:55;;;;;;;5.10;4.70;;;19.60;99.90;;;;;;5000007;28;20465;-67
2021/08/24 12:09:38;;;;;;;6.10;5.40;;;19.70;99.90;;;;;;4999162;28;20446;-68
2021/08/24 12:12:08;;;;;;;5.00;4.60;;;19.70;99.90;;;;;;5001515;28;20477;-68
2021/08/24 12:14:39;;;;;;;4.90;4.50;;;19.90;99.90;;;;;;5004069;28;20464;-67
2021/08/24 12:17:21;;;;;;;5.13;4.70;;;20.30;99.90;;;;;;5003342;28;20442;-67
2021/08/24 12:19:54;;;;;;;4.80;4.50;;;20.50;99.90;;;;;;4998176;28;20438;-67
2021/08/24 12:22:30;;;;;;;4.83;4.37;;;20.80;99.90;;;;;;4997662;28;20482;-67
2021/08/24 12:25:01;;;;;;;4.67;4.27;;;21.30;99.90;;;;;;4997346;28;20936;-67
2021/08/24 12:27:53;;;;;;;4.70;4.33;;;21.80;99.90;;;;;;4997899;28;20466;-68
2021/08/24 12:30:23;;;;;;;4.57;4.20;;;22.00;99.90;;;;;;4997611;28;20462;-65
2021/08/24 12:33:09;;;;;;;4.20;3.80;;;22.10;99.90;;;;;;4997038;28;20813;-67
2021/08/24 12:35:40;;;;;;;5.00;4.70;;;22.30;99.90;;;;;;4996910;28;20442;-67
2021/08/24 12:38:07;;;;;;;6.30;4.60;;;22.40;99.90;;;;;;4997556;28;20460;-68
2021/08/24 12:40:50;;;;;;;5.00;3.97;;;22.30;99.90;;;;;;4997437;28;20474;-67
2021/08/24 12:43:47;;;;;;;5.93;4.97;;;22.40;99.90;;;;;;4997316;28;20462;-67
2021/08/24 12:46:35;;;;;;;5.00;4.60;;;22.30;99.90;;;;;;4988682;28;20454;-68
2021/08/24 12:49:30;;;;;;;4.50;4.20;;;21.90;99.90;;;;;;4996698;28;20438;-67
2021/08/24 12:52:00;;;;;;;4.20;3.80;;;22.00;99.90;;;;;;5001176;28;20477;-67
2021/08/24 12:54:30;;;;;;;4.70;4.37;;;21.90;99.90;;;;;;4998793;28;20433;-67
2021/08/24 12:57:13;;;;;;;4.33;3.93;;;21.90;99.90;;;;;;4997328;28;20450;-67
2021/08/24 12:59:43;;;;;;;5.93;4.00;;;21.80;99.90;;;;;;4996404;28;20449;-67
2021/08/24 13:02:26;;;;;;;5.13;4.53;;;21.90;99.90;;;;;;4995810;28;20482;-67
2021/08/24 13:04:56;;;;;;;4.60;4.20;;;22.10;99.90;;;;;;4996072;28;20932;-68
2021/08/24 13:07:36;;;;;;;4.60;4.30;;;22.20;99.90;;;;;;4996705;28;20799;-67
2021/08/24 13:10:17;;;;;;;4.13;3.83;;;22.10;99.90;;;;;;4996566;28;20444;-67
2021/08/24 13:12:45;;;;;;;4.17;3.97;;;22.30;99.90;;;;;;4996677;28;20434;-67
2021/08/24 13:15:47;;;;;;;4.50;4.10;;;22.20;99.90;;;;;;4996035;28;20457;-67
2021/08/24 13:18:23;;;;;;;4.80;4.40;;;22.30;99.90;;;;;;4996615;28;20445;-67
2021/08/24 13:20:50;;;;;;;4.30;3.87;;;22.20;99.90;;;;;;4995872;28;20976;-67
2021/08/24 13:23:28;;;;;;;4.67;4.27;;;22.20;99.90;;;;;;4995737;28;20484;-68
2021/08/24 13:25:58;;;;;;;4.67;4.47;;;22.00;99.90;;;;;;4995801;28;20442;-67
2021/08/24 13:28:29;;;;;;;4.70;4.40;;;21.80;99.90;;;;;;4995892;28;20442;-67
2021/08/24 13:31:00;;;;;;;4.40;4.10;;;21.70;99.90;;;;;;4995222;28;20838;-67
2021/08/24 13:33:34;;;;;;;4.47;4.17;;;21.70;99.90;;;;;;4998202;28;20897;-68
2021/08/24 13:36:05;;;;;;;4.60;4.20;;;21.60;99.90;;;;;;4998202;28;20438;-68
2021/08/24 13:38:35;;;;;;;4.70;4.40;;;21.60;99.90;;;;;;4995863;28;20813;-68
2021/08/24 13:41:09;;;;;;;4.00;3.80;;;21.50;99.90;;;;;;4995384;28;20478;-67
2021/08/24 13:43:39;;;;;;;3.90;3.70;;;21.30;99.90;;;;;;4995084;28;20969;-67
2021/08/24 13:46:06;;;;;;;4.70;4.30;;;21.40;99.90;;;;;;4995554;28;20530;-67
2021/08/24 13:48:35;;;;;;;5.00;4.70;;;21.30;99.90;;;;;;4995312;28;20457;-67
2021/08/24 13:51:06;;;;;;;6.53;4.37;;;21.40;99.90;;;;;;4995427;28;20882;-67
2021/08/24 13:53:35;;;;;;;4.93;4.53;;;21.50;99.90;;;;;;4995193;28;20454;-67
2021/08/24 13:56:04;;;;;;;4.97;4.57;;;21.40;99.90;;;;;;4995963;28;20454;-67
2021/08/24 13:58:33;;;;;;;4.70;4.30;;;21.50;99.90;;;;;;4995146;28;20454;-66
2021/08/24 14:01:05;;;;;;;4.60;4.30;;;21.40;99.90;;;;;;4995233;28;20504;-66
2021/08/24 14:03:41;;;;;;;5.60;5.20;;;21.40;99.90;;;;;;4997695;28;21000;-67
2021/08/24 14:06:08;;;;;;;5.10;4.70;;;21.40;99.90;;;;;;4997713;28;20434;-67
2021/08/24 14:08:37;;;;;;;4.77;4.37;;;21.40;99.90;;;;;;4997516;28;20454;-67
2021/08/24 14:11:05;;;;;;;5.80;5.40;;;21.30;99.90;;;;;;4995764;28;20866;-66
2021/08/24 14:13:40;;;;;;;5.47;5.17;;;21.40;99.90;;;;;;4994901;28;20450;-67
2021/08/24 14:16:12;;;;;;;5.50;5.10;;;21.60;99.90;;;;;;4994923;28;20511;-67
2021/08/24 14:18:42;;;;;;;5.73;5.33;;;21.90;99.90;;;;;;4994561;28;20811;-66
2021/08/24 14:21:13;;;;;;;5.10;4.70;;;22.10;99.90;;;;;;4994843;28;20482;-67
2021/08/24 14:23:45;;;;;;;5.40;5.00;;;22.00;99.90;;;;;;4994754;28;20469;-67
2021/08/24 14:26:19;;;;;;;5.50;5.00;;;22.30;99.90;;;;;;4994721;28;20520;-67
2021/08/24 14:28:46;;;;;;;5.60;5.20;;;22.70;99.90;;;;;;4994536;28;20931;-67
2021/08/24 14:31:16;;;;;;;5.70;5.30;;;22.90;99.90;;;;;;4994695;28;20477;-67
2021/08/24 14:33:45;;;;;;;4.97;4.63;;;23.10;99.90;;;;;;4994292;28;20942;-67
2021/08/24 14:36:21;;;;;;;5.43;4.93;;;22.80;99.90;;;;;;4994624;28;20457;-67
2021/08/24 14:38:51;;;;;;;4.73;4.43;;;22.60;99.90;;;;;;4994510;28;20446;-67
2021/08/24 14:41:22;;;;;;;4.83;4.47;;;22.50;99.90;;;;;;4994830;28;20477;-67
2021/08/24 14:43:53;;;;;;;6.30;5.80;;;22.30;99.90;;;;;;4994559;28;20884;-67
2021/08/24 14:46:22;;;;;;;6.03;4.80;;;22.20;99.90;;;;;;4994567;28;20844;-67
2021/08/24 14:48:54;;;;;;;5.43;5.03;;;21.90;99.90;;;;;;4994214;28;20461;-67
2021/08/24 14:51:21;;;;;;;5.33;4.93;;;22.00;99.90;;;;;;4994665;28;20500;-67
2021/08/24 14:53:54;;;;;;;5.50;5.20;;;21.90;99.90;;;;;;4994680;28;20459;-67
2021/08/24 14:56:28;;;;;;;5.20;4.80;;;22.00;99.90;;;;;;4994306;28;20932;-67
2021/08/24 14:59:14;;;;;;;6.10;5.50;;;21.80;99.90;;;;;;4994649;28;20467;-67
2021/08/24 15:01:42;;;;;;;5.50;5.17;;;21.80;99.90;;;;;;4994187;28;21028;-67
2021/08/24 15:04:13;;;;;;;6.10;5.70;;;21.70;99.90;;;;;;4994389;28;20481;-67
2021/08/24 15:06:42;;;;;;;6.30;5.80;;;21.60;99.90;;;;;;4994338;28;20870;-67
2021/08/24 15:09:28;;;;;;;6.17;5.77;;;21.60;99.90;;;;;;4997785;28;20464;-68
2021/08/24 15:11:56;;;;;;;6.07;5.67;;;21.60;99.90;;;;;;4998093;28;20987;-67
2021/08/24 15:14:26;;;;;;;6.60;6.10;;;21.70;99.90;;;;;;4998619;28;20473;-67
2021/08/24 15:16:59;;;;;;;6.90;6.30;;;21.60;99.90;;;;;;4998435;28;20480;-67
2021/08/24 15:19:29;;;;;;;6.67;6.27;;;21.70;99.90;;;;;;5003754;28;20441;-67
2021/08/24 15:21:57;;;;;;;6.47;6.00;;;21.70;99.90;;;;;;5014419;28;20500;-67
2021/08/24 15:24:26;;;;;;;6.43;5.93;;;21.70;99.90;;;;;;5002488;28;20473;-67
2021/08/24 15:26:56;;;;;;;6.30;5.70;;;21.70;99.90;;;;;;4998615;28;20454;-67
2021/08/24 15:29:27;;;;;;;6.20;5.70;;;21.70;99.90;;;;;;4998919;28;20454;-67
2021/08/24 15:32:02;;;;;;;5.73;5.33;;;21.70;99.90;;;;;;4997568;28;20480;-67
2021/08/24 15:34:30;;;;;;;8.30;6.30;;;21.80;99.90;;;;;;4997844;28;20453;-67
2021/08/24 15:36:57;;;;;;;6.97;6.47;;;21.80;99.90;;;;;;4997829;28;20460;-67
2021/08/24 15:39:25;;;;;;;6.73;6.30;;;21.70;99.90;;;;;;4997841;28;20457;-67
2021/08/24 15:41:54;;;;;;;6.33;5.93;;;21.50;99.90;;;;;;4997623;28;20481;-67
2021/08/24 15:44:23;;;;;;;7.10;6.60;;;21.60;99.90;;;;;;4997855;28;20811;-67
2021/08/24 15:46:52;;;;;;;7.93;6.60;;;21.70;99.90;;;;;;4997255;28;20453;-67
2021/08/24 15:49:20;;;;;;;6.27;5.80;;;21.90;99.90;;;;;;4997494;28;20458;-67
2021/08/24 15:51:49;;;;;;;7.13;6.40;;;21.90;99.90;;;;;;4997424;28;20481;-67
2021/08/24 15:54:17;;;;;;;8.43;6.83;;;22.00;99.90;;;;;;4997399;28;20449;-67
2021/08/24 15:56:44;;;;;;;8.93;8.13;;;21.80;99.90;;;;;;4997596;28;20460;-67
2021/08/24 15:59:11;;;;;;;7.53;7.03;;;21.70;99.90;;;;;;4997654;28;20473;-67
2021/08/24 16:01:39;;;;;;;7.50;6.90;;;21.70;99.90;;;;;;4997082;28;20489;-67
2021/08/24 16:04:07;;;;;;;7.40;6.80;;;21.70;99.90;;;;;;4997574;28;20481;-67
2021/08/24 16:06:34;;;;;;;8.70;8.00;;;21.70;99.90;;;;;;4997264;28;20486;-67
2021/08/24 16:09:03;;;;;;;6.83;6.23;;;21.60;99.90;;;;;;4997315;28;20998;-67
2021/08/24 16:11:35;;;;;;;7.10;6.60;;;21.70;99.90;;;;;;4997248;28;20477;-67
2021/08/24 16:14:02;;;;;;;7.30;6.80;;;21.70;99.90;;;;;;4996880;28;21018;-67
2021/08/24 16:16:30;;;;;;;7.73;7.13;;;21.70;99.90;;;;;;4997199;28;20460;-67
2021/08/24 16:18:59;;;;;;;7.70;6.67;;;21.60;99.90;;;;;;4996307;28;20496;-67
2021/08/24 16:21:27;;;;;;;8.10;7.50;;;21.50;99.90;;;;;;4996989;28;20473;-67
2021/08/24 16:23:54;;;;;;;7.43;6.93;;;21.50;99.90;;;;;;4997396;28;20470;-67
2021/08/24 16:26:23;;;;;;;7.17;6.57;;;21.40;99.90;;;;;;4997664;28;20508;-67
2021/08/24 16:28:50;;;;;;;8.03;7.23;;;21.40;99.90;;;;;;4997835;28;20461;-68
2021/08/24 16:31:17;;;;;;;7.70;6.87;;;21.30;99.90;;;;;;4996427;28;20981;-67
2021/08/24 16:33:44;;;;;;;7.83;7.30;;;21.20;99.90;;;;;;4996919;28;20461;-67
2021/08/24 16:36:13;;;;;;;7.63;7.07;;;21.20;99.90;;;;;;4996512;28;20461;-67
2021/08/24 16:38:41;;;;;;;6.53;6.13;;;21.20;99.90;;;;;;4996622;28;20549;-67
2021/08/24 16:41:09;;;;;;;8.70;8.00;;;21.00;99.90;;;;;;4996898;28;20480;-67
2021/08/24 16:43:38;;;;;;;8.23;7.33;;;21.00;99.90;;;;;;4996288;28;20976;-68
2021/08/24 16:46:07;;;;;;;9.33;8.43;;;21.00;99.90;;;;;;4996479;28;20458;-67
2021/08/24 16:48:33;;;;;;;7.93;7.30;;;21.00;99.90;;;;;;4996490;28;20550;-68
2021/08/24 16:51:01;;;;;;;7.73;7.23;;;20.90;99.90;;;;;;4996339;28;20484;-67
2021/08/24 16:53:29;;;;;;;7.93;7.20;;;20.90;99.90;;;;;;4996478;28;20450;-67
2021/08/24 16:55:56;;;;;;;9.30;8.60;;;20.90;99.90;;;;;;4996228;28;20453;-67
2021/08/24 16:58:22;;;;;;;8.87;8.07;;;20.80;99.90;;;;;;4996194;28;20460;-67
2021/08/24 17:00:49;;;;;;;9.00;8.20;;;20.80;99.90;;;;;;4995878;28;20483;-67